• Join FlightAware (Why Join?)
  • Login
  • US Flag 
09:18AM EDT


 

Airport Tracker/Info


-or-


 

Live Flight TrackerFlight Track Log ✈ ASQ4169 ✈ 03-May-2013 ✈ KIAH - KABQ

Flight Track Log - Related Links

Times and Time Zones

All times are in EDT time to prevent confusion due to time zone crossing. See the ASQ4169 flight status page for this flight to view local times or setup timezone preferences in your user account.

Time Position Orientation Groundspeed Altitude Reporting Facility
EDT Latitude Longitude Course Direction KTS MPH feet Rate Location/Type
12:38PM 29.9742 -95.3419 276° West 194 223 700  Level Houston Center
12:39PM 29.9622 -95.3967 256° West 217 250 2,600 1,920 Climbing Houston Center
12:40PM 29.9506 -95.4750 260° West 263 303 4,500 2,340 Climbing Houston Center
12:41PM 30.0290 -95.7606 277° West  Level FlightAware Approximate
12:41PM 29.9661 -95.5553 283° West 256 295 7,500  Level Houston Center
12:42PM 30.0390 -95.8680 276° West  Level FlightAware Approximate
12:42PM 29.9822 -95.6403 282° West 271 312 9,800  Level Houston Center
12:43PM 30.0480 -95.9755 276° West  Level FlightAware Approximate
12:43PM 30.0033 -95.7378 284° West 294 338 11,500  Level Houston Center
12:44PM 30.0228 -95.8386 283° West 319 367 13,000 1,440 Climbing Houston Center
12:45PM 30.0436 -95.9442 283° West 338 389 14,500 1,500 Climbing Houston Center
12:46PM 30.0633 -96.0531 282° West 343 395 16,100 1,620 Climbing Houston Center
12:47PM 30.0833 -96.1575 283° West 337 388 17,900 1,740 Climbing Houston Center
12:48PM 30.1053 -96.2814 282° West 331 381 19,800 1,620 Climbing Houston Center
12:49PM 30.1211 -96.3858 280° West 331 381 21,300 1,440 Climbing Houston Center
12:50PM 30.1375 -96.4922 280° West 336 387 22,800 1,440 Climbing Houston Center
12:51PM 30.1261 -96.5994 263° West 334 384 24,300 1,380 Climbing Houston Center
12:52PM 30.1100 -96.7042 260° West 338 389 25,700 1,500 Climbing Houston Center
12:53PM 30.0900 -96.8275 259° West 331 381 27,500 1,560 Climbing Houston Center
12:54PM 30.0889 -96.9303 269° West 326 375 29,000 1,740 Climbing Houston Center
12:55PM 30.1161 -97.0272 288° West 304 350 31,100 1,500 Climbing Houston Center
12:56PM 30.1414 -97.1169 288° West 293 337 32,200 960 Climbing Houston Center
12:57PM 30.1678 -97.2103 288° West 300 345 33,200 960 Climbing Houston Center
12:58PM 30.1947 -97.3047 288° West 305 351 34,200 960 Climbing Houston Center
12:59PM 30.2222 -97.3997 289° West 307 353 35,200 840 Climbing Houston Center
01:01PM 30.2440 -97.5176 282° West  Level FlightAware Approximate
01:01PM 30.2481 -97.4925 282° West 301 346 36,000  Level Houston Center
01:02PM 30.2808 -97.6053 289° West 314 361 36,000  Level Houston Center
01:03PM 30.3092 -97.7100 287° West 331 381 36,000  Level Houston Center
01:04PM 30.3400 -97.8181 288° West 347 399 36,000  Level Houston Center
01:05PM 30.3706 -97.9294 288° West 355 409 36,000  Level Houston Center
01:06PM 30.4022 -98.0411 288° West 359 413 36,000  Level Houston Center
01:07PM 30.4325 -98.1522 288° West 358 412 36,000  Level Houston Center
01:08PM 30.4636 -98.2628 288° West 358 412 36,000  Level Houston Center
01:09PM 30.4939 -98.3728 288° West 354 407 36,000  Level Houston Center
01:10PM 30.5292 -98.5019 288° West 356 410 36,000  Level Houston Center
01:11PM 30.5581 -98.6125 287° West 355 409 36,000  Level Houston Center
01:12PM 30.5906 -98.7242 289° West 360 414 36,000  Level Houston Center
01:13PM 30.6214 -98.8347 288° West 357 411 36,000  Level Houston Center
01:14PM 30.6511 -98.9464 287° West 357 411 36,000  Level Houston Center
01:15PM 30.6803 -99.0567 287° West 355 409 36,000  Level Houston Center
01:16PM 30.7122 -99.1747 287° West 359 413 36,000  Level Houston Center
01:17PM 30.7419 -99.2856 287° West 361 415 36,000  Level Houston Center
01:18PM 30.7697 -99.3964 286° West 360 414 36,000  Level Houston Center
01:19PM 30.8058 -99.5283 288° West 359 413 36,000  Level Houston Center
01:20PM 30.8347 -99.6406 287° West 362 417 36,000  Level Houston Center
01:21PM 30.8642 -99.7508 287° West 360 414 36,000  Level Houston Center
01:22PM 30.8931 -99.8625 287° West 361 415 36,000  Level Houston Center
01:23PM 30.9217 -99.9722 287° West 359 413 36,000  Level Houston Center
01:24PM 30.9556 -100.1044 287° West 358 412 36,000  Level Houston Center
01:25PM 30.9842 -100.2144 287° West 357 411 36,000  Level Houston Center
01:26PM 31.0133 -100.3231 287° West 354 407 36,000  Level Houston Center
01:27PM 31.0525 -100.4292 293° West 360 414 36,000  Level Houston Center
01:28PM 31.1094 -100.5244 305° West 362 417 36,000  Level Houston Center
01:29PM 31.1767 -100.6411 304° West 365 420 36,000  Level Houston Center
01:31PM 31.2361 -100.7442 304° West 364 419 36,000  Level Fort Worth Center
01:32PM 31.2897 -100.8433 302° West 364 419 36,000  Level Fort Worth Center
01:33PM 31.3431 -100.9325 305° West 362 417 36,000  Level Houston Center
01:34PM 31.4011 -101.0347 304° West 359 413 36,000  Level Fort Worth Center
01:35PM 31.4567 -101.1344 303° West 354 407 36,000  Level Fort Worth Center
01:36PM 31.5142 -101.2342 304° West 354 407 36,000  Level Fort Worth Center
01:37PM 31.5678 -101.3314 303° West 354 407 36,000  Level Fort Worth Center
01:38PM 31.6250 -101.4314 304° West 359 413 36,000  Level Fort Worth Center
01:39PM 31.6786 -101.5217 305° West 364 419 36,000  Level Fort Worth Center
01:40PM 31.7317 -101.6217 302° West 364 419 36,000  Level Fort Worth Center
01:41PM 31.7886 -101.7219 304° West 369 425 36,000  Level Fort Worth Center
01:42PM 31.8458 -101.8225 304° West 375 432 36,000  Level Fort Worth Center
01:43PM 31.9006 -101.9256 302° West 375 432 36,000  Level Fort Worth Center
01:44PM 31.9553 -102.0261 303° West 380 437 36,000  Level Fort Worth Center
01:45PM 32.0100 -102.1244 303° West 380 437 36,000  Level Fort Worth Center
01:46PM 32.0667 -102.2328 302° West 380 437 36,000  Level Fort Worth Center
01:47PM 32.1231 -102.3339 303° West 380 437 36,000  Level Fort Worth Center
01:48PM 32.1833 -102.4500 302° West 380 437 36,000  Level Fort Worth Center
01:49PM 32.2317 -102.5411 302° West 380 437 36,000  Level Fort Worth Center
01:50PM 32.2881 -102.6450 303° West 380 437 36,000  Level Fort Worth Center
01:51PM 32.3461 -102.7517 303° West 380 437 36,000  Level Fort Worth Center
01:52PM 32.4044 -102.8533 304° West 380 437 36,000  Level Fort Worth Center
01:53PM 32.4603 -102.9578 302° West 380 437 36,000  Level Fort Worth Center
01:54PM 32.5181 -103.0647 303° West 380 437 36,000  Level Fort Worth Center
01:56PM 32.6303 -103.2714 303° West 384 442 36,000  Level Albuquerque Center
01:57PM 32.6878 -103.3775 303° West 384 442 36,000  Level Albuquerque Center
01:58PM 32.7453 -103.4839 303° West 384 442 36,000  Level Albuquerque Center
01:59PM 32.8133 -103.6131 302° West 384 442 36,000  Level Albuquerque Center
02:00PM 32.8758 -103.7306 302° West 386 444 36,000  Level Albuquerque Center
02:01PM 32.9333 -103.8375 303° West 384 442 36,000  Level Albuquerque Center
02:02PM 32.9906 -103.9478 302° West 392 451 36,000  Level Albuquerque Center
02:03PM 33.0517 -104.0656 302° West 390 449 36,000  Level Albuquerque Center
02:04PM 33.1086 -104.1753 302° West 390 449 36,000  Level Albuquerque Center
02:05PM 33.1697 -104.2944 302° West 391 450 36,000  Level Albuquerque Center
02:06PM 33.2242 -104.4017 301° West 392 451 36,000  Level Albuquerque Center
02:07PM 33.2819 -104.5133 302° West 394 453 36,000  Level Albuquerque Center
02:08PM 33.3403 -104.6233 302° West 394 453 36,000  Level Albuquerque Center
02:09PM 33.4314 -104.7306 316° Northwest 396 456 36,000 -60 Level Albuquerque Center
02:10PM 33.5103 -104.8233 316° Northwest 397 457 35,900 -600 Descending Albuquerque Center
02:11PM 33.5942 -104.9211 316° Northwest 391 450 34,800 -1,020 Descending Albuquerque Center
02:12PM 33.6739 -105.0128 316° Northwest 397 457 33,800 -1,260 Descending Albuquerque Center
02:13PM 33.7617 -105.1164 316° Northwest 410 472 32,200 -900 Descending Albuquerque Center
02:14PM 33.8444 -105.2125 316° Northwest 413 475 32,000 -120 Descending Albuquerque Center
02:15PM 33.9308 -105.3122 316° Northwest 416 479 32,000  Level Albuquerque Center
02:16PM 34.0133 -105.4100 316° Northwest 414 476 32,000 -540 Level Albuquerque Center
02:17PM 34.0942 -105.5050 316° Northwest 408 470 31,000 -1,200 Descending Albuquerque Center
02:18PM 34.1772 -105.6050 315° West 411 473 29,600 -1,500 Descending Albuquerque Center
02:19PM 34.2633 -105.7008 317° Northwest 413 475 28,000 -1,620 Descending Albuquerque Center
02:20PM 34.3442 -105.7950 316° Northwest 406 467 26,300 -1,920 Descending Albuquerque Center
02:21PM 34.3781 -105.9044 291° West 369 425 24,100 -2,340 Descending Albuquerque Center
02:22PM 34.3850 -105.9631 278° West 360 414 23,100 -2,520 Descending Albuquerque Center
02:22PM 34.3964 -106.0461 279° West 362 417 21,500 -2,220 Descending Albuquerque Center
02:24PM 34.4119 -106.1828 278° West 356 410 19,100 -1,860 Descending Albuquerque Center
02:24PM 34.4214 -106.2761 277° West 358 412 17,700 -1,620 Descending Albuquerque Center
02:26PM 34.4356 -106.3922 278° West 352 405 16,000 -1,560 Descending Albuquerque Center
02:27PM 34.4472 -106.5022 277° West 338 389 14,500 -1,380 Descending Albuquerque Center
02:28PM 34.4792 -106.5886 294° West 305 351 13,200 -1,260 Descending Albuquerque Center
02:29PM 34.5569 -106.6486 328° Northwest 285 328 12,000 -600 Descending Albuquerque Center
02:30PM 34.6267 -106.6833 338° Northwest 276 318 12,000 -600 Level Albuquerque Center
02:31PM 34.6969 -106.7153 340° North 272 313 10,800 -1,500 Descending Albuquerque Center
02:32PM 34.7683 -106.7381 345° North 255 293 9,000 -1,380 Descending Albuquerque Center
02:33PM 34.8358 -106.7283 North 259 298 8,000 -480 Descending Albuquerque Center
02:34PM 34.9058 -106.7225 North 257 296 8,000  Level Albuquerque Center